sensor_id;sensor_type;location;lat;lon;timestamp;temperature;humidity
55016;DHT22;40919;43.236;21.590;2023-07-28T00:26:06;410.30;2355.20
55016;DHT22;40919;43.236;21.590;2023-07-28T00:28:32;410.20;2355.20
55016;DHT22;40919;43.236;21.590;2023-07-28T00:30:58;410.00;2355.20
55016;DHT22;40919;43.236;21.590;2023-07-28T00:33:23;410.10;2355.20
55016;DHT22;40919;43.236;21.590;2023-07-28T00:35:49;410.30;2355.20
55016;DHT22;40919;43.236;21.590;2023-07-28T00:38:15;410.40;2355.20
55016;DHT22;40919;43.236;21.590;2023-07-28T00:40:41;410.40;2355.20
55016;DHT22;40919;43.236;21.590;2023-07-28T00:43:07;410.40;2355.20
55016;DHT22;40919;43.236;21.590;2023-07-28T00:45:33;410.50;2355.20
55016;DHT22;40919;43.236;21.590;2023-07-28T00:48:00;410.50;2355.20
55016;DHT22;40919;43.236;21.590;2023-07-28T00:50:26;410.40;2355.20
55016;DHT22;40919;43.236;21.590;2023-07-28T00:52:53;410.40;2355.20
55016;DHT22;40919;43.236;21.590;2023-07-28T00:55:21;410.30;2355.20
55016;DHT22;40919;43.236;21.590;2023-07-28T00:57:47;410.30;2355.20
55016;DHT22;40919;43.236;21.590;2023-07-28T01:00:13;410.20;2355.20
55016;DHT22;40919;43.236;21.590;2023-07-28T01:02:39;410.20;2355.20
55016;DHT22;40919;43.236;21.590;2023-07-28T01:05:06;410.20;2355.20
55016;DHT22;40919;43.236;21.590;2023-07-28T01:07:59;410.20;2355.20
55016;DHT22;40919;43.236;21.590;2023-07-28T01:10:32;410.00;2355.20
55016;DHT22;40919;43.236;21.590;2023-07-28T01:12:59;410.30;2355.20
55016;DHT22;40919;43.236;21.590;2023-07-28T01:15:25;410.30;2355.20
55016;DHT22;40919;43.236;21.590;2023-07-28T01:17:51;410.30;2355.20
55016;DHT22;40919;43.236;21.590;2023-07-28T01:20:17;410.20;2355.20
55016;DHT22;40919;43.236;21.590;2023-07-28T01:23:19;410.20;2355.20
55016;DHT22;40919;43.236;21.590;2023-07-28T01:26:11;410.00;2355.20
55016;DHT22;40919;43.236;21.590;2023-07-28T01:28:41;410.20;2355.20
55016;DHT22;40919;43.236;21.590;2023-07-28T01:31:08;410.10;2355.20
55016;DHT22;40919;43.236;21.590;2023-07-28T01:33:34;410.00;2355.20
55016;DHT22;40919;43.236;21.590;2023-07-28T01:36:00;410.20;2355.20
55016;DHT22;40919;43.236;21.590;2023-07-28T01:38:27;410.30;2355.20
55016;DHT22;40919;43.236;21.590;2023-07-28T01:40:53;409.80;2355.20
55016;DHT22;40919;43.236;21.590;2023-07-28T01:43:19;384.90;2329.60
55016;DHT22;40919;43.236;21.590;2023-07-28T01:45:45;384.90;2329.60
55016;DHT22;40919;43.236;21.590;2023-07-28T01:48:11;409.70;2355.20
55016;DHT22;40919;43.236;21.590;2023-07-28T01:50:37;409.70;2355.20
55016;DHT22;40919;43.236;21.590;2023-07-28T01:53:05;409.60;2355.20
55016;DHT22;40919;43.236;21.590;2023-07-28T01:55:31;409.90;2355.20
55016;DHT22;40919;43.236;21.590;2023-07-28T01:58:01;410.00;2355.20
55016;DHT22;40919;43.236;21.590;2023-07-28T02:00:28;410.00;2355.20
55016;DHT22;40919;43.236;21.590;2023-07-28T02:02:54;410.10;2355.20
55016;DHT22;40919;43.236;21.590;2023-07-28T02:05:20;410.00;2355.20
55016;DHT22;40919;43.236;21.590;2023-07-28T02:07:46;410.10;2355.20
55016;DHT22;40919;43.236;21.590;2023-07-28T02:10:12;410.10;2355.20
55016;DHT22;40919;43.236;21.590;2023-07-28T02:12:38;410.30;2355.20
55016;DHT22;40919;43.236;21.590;2023-07-28T02:15:07;410.40;2355.20
55016;DHT22;40919;43.236;21.590;2023-07-28T02:17:34;409.70;2355.20
55016;DHT22;40919;43.236;21.590;2023-07-28T02:20:00;409.70;2355.20
55016;DHT22;40919;43.236;21.590;2023-07-28T02:22:28;409.70;2355.20
55016;DHT22;40919;43.236;21.590;2023-07-28T02:24:53;409.90;2355.20
55016;DHT22;40919;43.236;21.590;2023-07-28T02:27:19;409.90;2355.20
55016;DHT22;40919;43.236;21.590;2023-07-28T02:29:45;409.90;2355.20
55016;DHT22;40919;43.236;21.590;2023-07-28T02:32:11;409.60;2355.20
55016;DHT22;40919;43.236;21.590;2023-07-28T02:34:37;409.90;2355.20
55016;DHT22;40919;43.236;21.590;2023-07-28T02:37:03;409.90;2355.20
55016;DHT22;40919;43.236;21.590;2023-07-28T02:39:28;409.70;2355.20
55016;DHT22;40919;43.236;21.590;2023-07-28T05:22:53;410.00;2355.20
55016;DHT22;40919;43.236;21.590;2023-07-28T05:25:19;409.80;2355.20
55016;DHT22;40919;43.236;21.590;2023-07-28T05:27:45;410.00;2355.20
55016;DHT22;40919;43.236;21.590;2023-07-28T05:30:10;410.10;2355.20
55016;DHT22;40919;43.236;21.590;2023-07-28T05:32:36;410.40;2355.20
55016;DHT22;40919;43.236;21.590;2023-07-28T05:35:02;410.20;2355.20
55016;DHT22;40919;43.236;21.590;2023-07-28T05:37:28;410.10;2355.20
55016;DHT22;40919;43.236;21.590;2023-07-28T05:39:54;410.30;2355.20
55016;DHT22;40919;43.236;21.590;2023-07-28T05:42:20;410.30;2355.20
55016;DHT22;40919;43.236;21.590;2023-07-28T05:44:45;410.30;2355.20
55016;DHT22;40919;43.236;21.590;2023-07-28T05:47:11;410.50;2355.20
55016;DHT22;40919;43.236;21.590;2023-07-28T05:49:37;410.50;2355.20
55016;DHT22;40919;43.236;21.590;2023-07-28T05:52:03;410.50;2355.20
55016;DHT22;40919;43.236;21.590;2023-07-28T05:54:29;435.20;2355.20
55016;DHT22;40919;43.236;21.590;2023-07-28T05:56:54;435.30;2355.20
55016;DHT22;40919;43.236;21.590;2023-07-28T05:59:20;435.40;2355.20
55016;DHT22;40919;43.236;21.590;2023-07-28T06:01:46;435.50;2355.20
55016;DHT22;40919;43.236;21.590;2023-07-28T06:04:12;435.60;2355.20
55016;DHT22;40919;43.236;21.590;2023-07-28T06:06:38;435.70;2355.20
55016;DHT22;40919;43.236;21.590;2023-07-28T06:09:04;435.80;2355.20
55016;DHT22;40919;43.236;21.590;2023-07-28T06:11:30;435.90;2355.20
55016;DHT22;40919;43.236;21.590;2023-07-28T06:13:55;436.10;2355.20
55016;DHT22;40919;43.236;21.590;2023-07-28T06:16:22;436.10;2355.20
55016;DHT22;40919;43.236;21.590;2023-07-28T06:18:49;436.10;2355.20
55016;DHT22;40919;43.236;21.590;2023-07-28T06:21:15;460.80;2380.80
55016;DHT22;40919;43.236;21.590;2023-07-28T06:23:41;460.80;2380.80
55016;DHT22;40919;43.236;21.590;2023-07-28T06:26:07;461.00;2380.80
55016;DHT22;40919;43.236;21.590;2023-07-28T06:28:33;461.20;2380.80
55016;DHT22;40919;43.236;21.590;2023-07-28T06:30:59;461.30;2380.80
55016;DHT22;40919;43.236;21.590;2023-07-28T06:33:25;461.30;2380.80
55016;DHT22;40919;43.236;21.590;2023-07-28T06:35:51;461.50;2380.80
55016;DHT22;40919;43.236;21.590;2023-07-28T06:38:18;461.60;2380.80
55016;DHT22;40919;43.236;21.590;2023-07-28T06:40:43;461.70;2380.80
55016;DHT22;40919;43.236;21.590;2023-07-28T06:43:09;486.50;2380.80
55016;DHT22;40919;43.236;21.590;2023-07-28T06:45:36;486.70;2380.80
55016;DHT22;40919;43.236;21.590;2023-07-28T06:48:02;486.80;2380.80
55016;DHT22;40919;43.236;21.590;2023-07-28T06:50:28;486.70;2380.80
55016;DHT22;40919;43.236;21.590;2023-07-28T06:52:53;486.70;2380.80
55016;DHT22;40919;43.236;21.590;2023-07-28T06:55:19;486.60;2380.80
55016;DHT22;40919;43.236;21.590;2023-07-28T06:57:47;486.80;2380.80
55016;DHT22;40919;43.236;21.590;2023-07-28T07:00:25;487.00;2380.80
55016;DHT22;40919;43.236;21.590;2023-07-28T07:02:51;487.00;2380.80
55016;DHT22;40919;43.236;21.590;2023-07-28T07:05:17;487.20;2380.80
55016;DHT22;40919;43.236;21.590;2023-07-28T07:07:43;512.00;2380.80
55016;DHT22;40919;43.236;21.590;2023-07-28T07:10:08;512.30;2380.80
55016;DHT22;40919;43.236;21.590;2023-07-28T07:12:35;512.40;2380.80
55016;DHT22;40919;43.236;21.590;2023-07-28T07:15:01;512.50;2380.80
55016;DHT22;40919;43.236;21.590;2023-07-28T07:17:27;512.50;2380.80
55016;DHT22;40919;43.236;21.590;2023-07-28T07:19:52;512.40;2380.80
55016;DHT22;40919;43.236;21.590;2023-07-28T07:22:18;512.50;2380.80
55016;DHT22;40919;43.236;21.590;2023-07-28T07:24:44;512.70;2380.80
55016;DHT22;40919;43.236;21.590;2023-07-28T07:27:10;512.90;2380.80
55016;DHT22;40919;43.236;21.590;2023-07-28T07:29:38;537.80;2406.40
55016;DHT22;40919;43.236;21.590;2023-07-28T07:32:05;538.10;2406.40
55016;DHT22;40919;43.236;21.590;2023-07-28T07:34:31;538.20;2406.40
55016;DHT22;40919;43.236;21.590;2023-07-28T07:36:57;538.00;2406.40
55016;DHT22;40919;43.236;21.590;2023-07-28T07:39:23;538.10;2406.40
55016;DHT22;40919;43.236;21.590;2023-07-28T07:41:49;538.40;2406.40
55016;DHT22;40919;43.236;21.590;2023-07-28T07:44:14;563.30;2432.00
55016;DHT22;40919;43.236;21.590;2023-07-28T07:46:41;563.40;2432.00
55016;DHT22;40919;43.236;21.590;2023-07-28T07:49:07;563.60;2432.00
55016;DHT22;40919;43.236;21.590;2023-07-28T07:51:33;563.70;2432.00
55016;DHT22;40919;43.236;21.590;2023-07-28T07:54:00;563.80;2432.00
55016;DHT22;40919;43.236;21.590;2023-07-28T07:56:27;563.90;2432.00
55016;DHT22;40919;43.236;21.590;2023-07-28T07:58:53;564.00;2432.00
55016;DHT22;40919;43.236;21.590;2023-07-28T08:01:18;563.80;2432.00
55016;DHT22;40919;43.236;21.590;2023-07-28T08:03:44;563.70;2432.00
55016;DHT22;40919;43.236;21.590;2023-07-28T08:06:10;564.10;2432.00
55016;DHT22;40919;43.236;21.590;2023-07-28T08:08:38;588.90;2432.00
55016;DHT22;40919;43.236;21.590;2023-07-28T08:11:03;589.10;2432.00
55016;DHT22;40919;43.236;21.590;2023-07-28T08:13:29;589.20;2432.00
55016;DHT22;40919;43.236;21.590;2023-07-28T08:15:55;589.20;2432.00
55016;DHT22;40919;43.236;21.590;2023-07-28T08:18:21;589.50;2432.00
55016;DHT22;40919;43.236;21.590;2023-07-28T08:20:48;614.40;2432.00
55016;DHT22;40919;43.236;21.590;2023-07-28T08:23:14;614.70;2432.00
55016;DHT22;40919;43.236;21.590;2023-07-28T08:37:51;640.10;2355.20
55016;DHT22;40919;43.236;21.590;2023-07-28T10:54:00;794.50;1920.00
55016;DHT22;40919;43.236;21.590;2023-07-28T10:56:26;794.50;1920.00
55016;DHT22;40919;43.236;21.590;2023-07-28T11:06:42;794.40;1868.80
55016;DHT22;40919;43.236;21.590;2023-07-28T11:09:08;794.00;1868.80
55016;DHT22;40919;43.236;21.590;2023-07-28T11:11:36;819.40;1894.40
55016;DHT22;40919;43.236;21.590;2023-07-28T11:14:07;819.30;1920.00
55016;DHT22;40919;43.236;21.590;2023-07-28T11:16:37;819.20;1868.80
55016;DHT22;40919;43.236;21.590;2023-07-28T11:19:08;794.30;1868.80
55016;DHT22;40919;43.236;21.590;2023-07-28T11:21:38;794.40;1894.40
55016;DHT22;40919;43.236;21.590;2023-07-28T11:24:04;794.20;1894.40
55016;DHT22;40919;43.236;21.590;2023-07-28T11:26:30;794.20;1920.00
55016;DHT22;40919;43.236;21.590;2023-07-28T11:28:57;819.60;1868.80
55016;DHT22;40919;43.236;21.590;2023-07-28T11:31:25;819.90;1868.80
55016;DHT22;40919;43.236;21.590;2023-07-28T11:33:51;820.10;1817.60
55016;DHT22;40919;43.236;21.590;2023-07-28T11:36:26;819.90;1817.60
55016;DHT22;40919;43.236;21.590;2023-07-28T11:38:53;844.90;1868.80
55016;DHT22;40919;43.236;21.590;2023-07-28T11:41:20;845.00;1843.20
55016;DHT22;40919;43.236;21.590;2023-07-28T11:43:49;845.10;1843.20
55016;DHT22;40919;43.236;21.590;2023-07-28T11:49:19;845.70;1766.40
55016;DHT22;40919;43.236;21.590;2023-07-28T11:51:52;845.50;1740.80
55016;DHT22;40919;43.236;21.590;2023-07-28T11:54:22;845.20;1766.40
55016;DHT22;40919;43.236;21.590;2023-07-28T11:56:50;819.90;1792.00
55016;DHT22;40919;43.236;21.590;2023-07-28T11:59:18;844.90;1843.20
55016;DHT22;40919;43.236;21.590;2023-07-28T12:01:54;845.10;1792.00
55016;DHT22;40919;43.236;21.590;2023-07-28T12:04:26;845.30;1792.00
55016;DHT22;40919;43.236;21.590;2023-07-28T12:09:28;870.50;1766.40
55016;DHT22;40919;43.236;21.590;2023-07-28T12:11:54;870.70;1766.40
55016;DHT22;40919;43.236;21.590;2023-07-28T12:14:35;870.90;1766.40
55016;DHT22;40919;43.236;21.590;2023-07-28T12:17:01;870.90;1740.80
55016;DHT22;40919;43.236;21.590;2023-07-28T12:19:29;870.90;1715.20
55016;DHT22;40919;43.236;21.590;2023-07-28T12:21:55;870.80;1715.20
55016;DHT22;40919;43.236;21.590;2023-07-28T12:24:21;870.90;1740.80
55016;DHT22;40919;43.236;21.590;2023-07-28T12:26:53;871.00;1740.80
55016;DHT22;40919;43.236;21.590;2023-07-28T12:29:19;871.10;1715.20
55016;DHT22;40919;43.236;21.590;2023-07-28T12:31:44;871.20;1715.20
55016;DHT22;40919;43.236;21.590;2023-07-28T13:03:27;896.50;1664.00
55016;DHT22;40919;43.236;21.590;2023-07-28T13:05:52;896.40;1689.60
55016;DHT22;40919;43.236;21.590;2023-07-28T16:10:58;845.10;1766.40
55016;DHT22;40919;43.236;21.590;2023-07-28T16:13:24;845.10;1766.40
55016;DHT22;40919;43.236;21.590;2023-07-28T16:15:51;844.80;1792.00
55016;DHT22;40919;43.236;21.590;2023-07-28T16:18:16;819.90;1792.00
55016;DHT22;40919;43.236;21.590;2023-07-28T16:20:42;819.80;1792.00
55016;DHT22;40919;43.236;21.590;2023-07-28T16:23:08;819.60;1817.60
55016;DHT22;40919;43.236;21.590;2023-07-28T16:25:34;819.60;1817.60
55016;DHT22;40919;43.236;21.590;2023-07-28T16:27:59;819.40;1843.20
55016;DHT22;40919;43.236;21.590;2023-07-28T16:42:36;794.30;1868.80
55016;DHT22;40919;43.236;21.590;2023-07-28T16:45:02;794.10;1894.40
55016;DHT22;40919;43.236;21.590;2023-07-28T16:47:28;794.00;1920.00
55016;DHT22;40919;43.236;21.590;2023-07-28T16:54:47;793.70;1920.00
55016;DHT22;40919;43.236;21.590;2023-07-28T16:57:13;793.70;1920.00
55016;DHT22;40919;43.236;21.590;2023-07-28T17:24:01;743.00;2073.60
55016;DHT22;40919;43.236;21.590;2023-07-28T17:26:27;742.90;2099.20
55016;DHT22;40919;43.236;21.590;2023-07-28T17:28:53;742.70;2099.20
55016;DHT22;40919;43.236;21.590;2023-07-28T17:33:45;742.50;2124.80
55016;DHT22;40919;43.236;21.590;2023-07-28T17:36:11;742.40;2124.80
55016;DHT22;40919;43.236;21.590;2023-07-28T17:45:55;717.50;2150.40
55016;DHT22;40919;43.236;21.590;2023-07-28T17:48:21;717.20;2176.00
55016;DHT22;40919;43.236;21.590;2023-07-28T17:50:47;717.20;2150.40
55016;DHT22;40919;43.236;21.590;2023-07-28T18:12:43;716.80;2227.20
55016;DHT22;40919;43.236;21.590;2023-07-28T18:32:13;691.40;2278.40
55016;DHT22;40919;43.236;21.590;2023-07-28T18:34:39;691.40;2252.80
55016;DHT22;40919;43.236;21.590;2023-07-28T18:39:31;666.50;2304.00
55016;DHT22;40919;43.236;21.590;2023-07-28T18:41:59;666.40;2304.00
55016;DHT22;40919;43.236;21.590;2023-07-28T18:44:25;666.50;2304.00
55016;DHT22;40919;43.236;21.590;2023-07-28T18:46:52;666.50;2304.00
55016;DHT22;40919;43.236;21.590;2023-07-28T18:49:18;666.50;2304.00
55016;DHT22;40919;43.236;21.590;2023-07-28T18:51:44;666.50;2304.00
55016;DHT22;40919;43.236;21.590;2023-07-28T18:54:10;666.50;2304.00
55016;DHT22;40919;43.236;21.590;2023-07-28T18:56:35;666.40;2329.60
55016;DHT22;40919;43.236;21.590;2023-07-28T18:59:01;666.20;2355.20
55016;DHT22;40919;43.236;21.590;2023-07-28T19:01:27;666.00;2355.20
55016;DHT22;40919;43.236;21.590;2023-07-28T19:03:53;665.70;2380.80
55016;DHT22;40919;43.236;21.590;2023-07-28T19:06:18;665.70;2380.80
55016;DHT22;40919;43.236;21.590;2023-07-28T19:08:46;665.60;2406.40
55016;DHT22;40919;43.236;21.590;2023-07-28T19:11:14;640.80;2406.40
55016;DHT22;40919;43.236;21.590;2023-07-28T19:13:39;640.60;2406.40
55016;DHT22;40919;43.236;21.590;2023-07-28T19:16:05;640.70;2406.40
55016;DHT22;40919;43.236;21.590;2023-07-28T19:18:31;640.60;2406.40
55016;DHT22;40919;43.236;21.590;2023-07-28T19:20:57;640.50;2406.40
55016;DHT22;40919;43.236;21.590;2023-07-28T19:23:23;640.60;2406.40
55016;DHT22;40919;43.236;21.590;2023-07-28T19:25:49;640.60;2406.40
55016;DHT22;40919;43.236;21.590;2023-07-28T19:28:15;640.70;2380.80
55016;DHT22;40919;43.236;21.590;2023-07-28T19:30:41;640.80;2406.40
55016;DHT22;40919;43.236;21.590;2023-07-28T19:33:06;640.70;2406.40
55016;DHT22;40919;43.236;21.590;2023-07-28T19:35:32;640.60;2406.40
55016;DHT22;40919;43.236;21.590;2023-07-28T19:37:58;640.40;2432.00
55016;DHT22;40919;43.236;21.590;2023-07-28T19:40:24;640.40;2432.00
55016;DHT22;40919;43.236;21.590;2023-07-28T19:42:50;640.30;2432.00
55016;DHT22;40919;43.236;21.590;2023-07-28T19:50:13;640.40;2432.00
55016;DHT22;40919;43.236;21.590;2023-07-28T19:55:05;640.30;2432.00
55016;DHT22;40919;43.236;21.590;2023-07-28T20:24:19;615.30;2432.00
55016;DHT22;40919;43.236;21.590;2023-07-28T20:26:45;615.00;2432.00
55016;DHT22;40919;43.236;21.590;2023-07-28T20:29:11;614.80;2432.00
55016;DHT22;40919;43.236;21.590;2023-07-28T20:31:36;614.60;2432.00
55016;DHT22;40919;43.236;21.590;2023-07-28T20:34:02;614.70;2432.00
55016;DHT22;40919;43.236;21.590;2023-07-28T20:36:28;614.60;2432.00
55016;DHT22;40919;43.236;21.590;2023-07-28T20:38:54;614.60;2432.00
55016;DHT22;40919;43.236;21.590;2023-07-28T20:41:19;614.60;2432.00
55016;DHT22;40919;43.236;21.590;2023-07-28T20:43:45;614.50;2432.00
55016;DHT22;40919;43.236;21.590;2023-07-28T20:46:11;614.60;2432.00
55016;DHT22;40919;43.236;21.590;2023-07-28T20:48:37;614.50;2432.00
55016;DHT22;40919;43.236;21.590;2023-07-28T20:51:05;589.70;2432.00
55016;DHT22;40919;43.236;21.590;2023-07-28T20:53:30;589.60;2432.00
55016;DHT22;40919;43.236;21.590;2023-07-28T20:55:57;589.60;2432.00
55016;DHT22;40919;43.236;21.590;2023-07-28T20:58:23;589.70;2432.00
55016;DHT22;40919;43.236;21.590;2023-07-28T21:00:52;589.70;2432.00
55016;DHT22;40919;43.236;21.590;2023-07-28T21:03:21;589.60;2432.00
55016;DHT22;40919;43.236;21.590;2023-07-28T21:05:46;589.40;2432.00
55016;DHT22;40919;43.236;21.590;2023-07-28T21:08:13;589.50;2432.00
55016;DHT22;40919;43.236;21.590;2023-07-28T21:10:39;589.60;2432.00
55016;DHT22;40919;43.236;21.590;2023-07-28T21:13:05;589.50;2432.00
55016;DHT22;40919;43.236;21.590;2023-07-28T21:15:35;589.50;2432.00
55016;DHT22;40919;43.236;21.590;2023-07-28T21:18:01;589.40;2432.00
55016;DHT22;40919;43.236;21.590;2023-07-28T21:20:26;589.40;2432.00
55016;DHT22;40919;43.236;21.590;2023-07-28T21:22:52;589.20;2432.00
55016;DHT22;40919;43.236;21.590;2023-07-28T21:25:18;589.10;2432.00
55016;DHT22;40919;43.236;21.590;2023-07-28T21:27:44;589.10;2432.00
55016;DHT22;40919;43.236;21.590;2023-07-28T21:30:10;589.00;2432.00
55016;DHT22;40919;43.236;21.590;2023-07-28T21:32:36;588.90;2432.00
55016;DHT22;40919;43.236;21.590;2023-07-28T21:35:03;588.80;2432.00
55016;DHT22;40919;43.236;21.590;2023-07-28T21:37:29;588.90;2432.00
55016;DHT22;40919;43.236;21.590;2023-07-28T21:39:56;588.90;2432.00
55016;DHT22;40919;43.236;21.590;2023-07-28T21:42:22;588.90;2432.00
55016;DHT22;40919;43.236;21.590;2023-07-28T21:44:48;588.90;2432.00
55016;DHT22;40919;43.236;21.590;2023-07-28T21:47:14;588.80;2432.00
55016;DHT22;40919;43.236;21.590;2023-07-28T21:49:39;588.80;2432.00
55016;DHT22;40919;43.236;21.590;2023-07-28T21:52:05;588.80;2432.00
55016;DHT22;40919;43.236;21.590;2023-07-28T21:54:31;588.90;2432.00
55016;DHT22;40919;43.236;21.590;2023-07-28T21:56:57;588.90;2432.00
55016;DHT22;40919;43.236;21.590;2023-07-28T21:59:23;589.00;2432.00
55016;DHT22;40919;43.236;21.590;2023-07-28T22:01:50;589.00;2432.00
55016;DHT22;40919;43.236;21.590;2023-07-28T22:04:17;588.80;2432.00
55016;DHT22;40919;43.236;21.590;2023-07-28T22:06:44;588.80;2432.00
55016;DHT22;40919;43.236;21.590;2023-07-28T22:43:17;563.60;2432.00
55016;DHT22;40919;43.236;21.590;2023-07-28T22:45:43;563.20;2432.00
55016;DHT22;40919;43.236;21.590;2023-07-28T22:48:09;563.30;2432.00
55016;DHT22;40919;43.236;21.590;2023-07-28T22:50:35;563.40;2432.00
55016;DHT22;40919;43.236;21.590;2023-07-28T22:53:01;563.50;2432.00
55016;DHT22;40919;43.236;21.590;2023-07-28T22:55:27;563.40;2432.00
55016;DHT22;40919;43.236;21.590;2023-07-28T22:57:53;563.40;2432.00
55016;DHT22;40919;43.236;21.590;2023-07-28T23:00:20;563.40;2432.00
55016;DHT22;40919;43.236;21.590;2023-07-28T23:02:52;563.40;2432.00
55016;DHT22;40919;43.236;21.590;2023-07-28T23:05:18;563.50;2432.00
55016;DHT22;40919;43.236;21.590;2023-07-28T23:07:46;563.60;2432.00
55016;DHT22;40919;43.236;21.590;2023-07-28T23:10:12;563.50;2432.00
55016;DHT22;40919;43.236;21.590;2023-07-28T23:12:42;563.40;2432.00
55016;DHT22;40919;43.236;21.590;2023-07-28T23:15:10;563.30;2432.00
55016;DHT22;40919;43.236;21.590;2023-07-28T23:17:36;538.40;2406.40
55016;DHT22;40919;43.236;21.590;2023-07-28T23:20:02;538.50;2406.40
55016;DHT22;40919;43.236;21.590;2023-07-28T23:22:29;538.10;2406.40
55016;DHT22;40919;43.236;21.590;2023-07-28T23:24:55;538.10;2406.40
55016;DHT22;40919;43.236;21.590;2023-07-28T23:27:21;538.30;2406.40
55016;DHT22;40919;43.236;21.590;2023-07-28T23:29:49;538.40;2406.40
55016;DHT22;40919;43.236;21.590;2023-07-28T23:32:16;538.40;2406.40
55016;DHT22;40919;43.236;21.590;2023-07-28T23:34:42;538.10;2406.40
55016;DHT22;40919;43.236;21.590;2023-07-28T23:37:08;538.10;2406.40
55016;DHT22;40919;43.236;21.590;2023-07-28T23:39:34;538.10;2406.40
55016;DHT22;40919;43.236;21.590;2023-07-28T23:42:00;538.10;2406.40
55016;DHT22;40919;43.236;21.590;2023-07-28T23:44:27;538.10;2406.40
55016;DHT22;40919;43.236;21.590;2023-07-28T23:46:53;538.00;2406.40
55016;DHT22;40919;43.236;21.590;2023-07-28T23:49:19;538.00;2406.40
55016;DHT22;40919;43.236;21.590;2023-07-28T23:51:48;537.90;2406.40
55016;DHT22;40919;43.236;21.590;2023-07-28T23:54:14;537.80;2406.40
55016;DHT22;40919;43.236;21.590;2023-07-28T23:56:40;538.00;2406.40
55016;DHT22;40919;43.236;21.590;2023-07-28T23:59:06;537.90;2406.40
